Time;durP1;ratioP1;P1;durP2;ratioP2;P2;SDS_P1;SDS_P2;PMS_P1;PMS_P2;Temp;Humidity;BMP_temperature;BMP_pressure;BME280_temperature;BME280_humidity;BME280_pressure;Samples;Min_cycle;Max_cycle;Signal;HPM_P1;HPM_P2
2022/12/10 02:43:27;;;;;;;69.22;34.18;;;;;;;1.59;89.61;98060.32;1808859;79;22517;-41
2022/12/10 02:45:54;;;;;;;63.75;33.00;;;;;;;1.48;89.69;98058.98;1777195;80;21460;-39
2022/12/10 02:48:20;;;;;;;;;;;;;;;1.60;89.68;98061.99;1772276;80;21011;-43
2022/12/10 02:50:46;;;;;;;65.57;33.40;;;;;;;1.57;89.08;98054.36;1774984;80;20112;-42
2022/12/10 02:53:12;;;;;;;66.95;32.75;;;;;;;1.62;89.43;98054.57;1762997;80;21018;-42
2022/12/10 02:56:24;;;;;;;63.98;31.87;;;;;;;1.68;89.18;98054.78;1773019;80;21430;-43
2022/12/10 02:58:58;;;;;;;61.15;31.45;;;;;;;1.66;88.91;98052.70;1779445;80;21051;-42
2022/12/10 03:01:50;;;;;;;65.37;32.10;;;;;;;1.65;88.72;98057.02;1770590;80;21521;-42
2022/12/10 03:04:33;;;;;;;66.10;32.60;;;;;;;1.59;89.09;98055.97;1774485;80;21491;-42
2022/12/10 03:07:04;;;;;;;59.15;30.95;;;;;;;1.56;89.17;98050.06;1760236;80;21015;-43
2022/12/10 03:09:40;;;;;;;62.78;32.00;;;;;;;1.46;89.31;98047.83;1770491;80;21571;-42
2022/12/10 03:12:46;;;;;;;62.23;31.73;;;;;;;1.52;89.34;98050.64;1756072;80;21026;-43
2022/12/10 03:15:14;;;;;;;60.28;31.52;;;;;;;1.61;89.27;98058.51;1777692;80;21015;-42
2022/12/10 03:17:41;;;;;;;;;;;;;;;1.56;89.13;98048.77;1774168;81;20992;-42
2022/12/10 03:20:11;;;;;;;68.17;31.75;;;;;;;1.56;89.42;98054.79;1774860;80;20464;-43
2022/12/10 03:22:40;;;;;;;59.48;31.82;;;;;;;1.62;89.40;98058.45;1766287;80;21481;-42
2022/12/10 03:25:09;;;;;;;62.40;30.80;;;;;;;1.63;89.18;98063.18;1769067;80;21043;-42
2022/12/10 03:27:36;;;;;;;64.95;31.97;;;;;;;1.62;89.02;98058.88;1773694;80;21019;-42
2022/12/10 03:30:03;;;;;;;66.77;33.80;;;;;;;1.58;89.27;98059.45;1777104;80;20980;-42
2022/12/10 03:32:30;;;;;;;68.17;35.20;;;;;;;1.45;89.72;98056.49;1775304;80;21062;-42
2022/12/10 03:34:58;;;;;;;62.75;33.65;;;;;;;1.47;89.50;98059.86;1779543;80;21051;-42
2022/12/10 03:37:27;;;;;;;67.10;33.50;;;;;;;1.54;89.50;98063.91;1779440;81;21027;-42
2022/12/10 03:39:53;;;;;;;69.27;33.00;;;;;;;1.63;89.48;98061.42;1776115;80;20987;-42
2022/12/10 03:42:19;;;;;;;65.55;31.40;;;;;;;1.38;89.66;98062.81;1762354;80;21495;-43
2022/12/10 03:44:45;;;;;;;70.32;33.33;;;;;;;1.51;89.72;98069.23;1779705;80;21019;-41
2022/12/10 03:47:14;;;;;;;70.22;34.33;;;;;;;1.48;89.97;98071.93;1777690;80;20956;-41
2022/12/10 03:49:42;;;;;;;67.20;31.82;;;;;;;1.62;89.40;98075.73;1776113;81;20987;-42
2022/12/10 03:52:08;;;;;;;76.20;34.18;;;;;;;1.53;89.25;98075.20;1769173;80;21045;-42
2022/12/10 03:54:33;;;;;;;80.20;35.55;;;;;;;1.53;89.29;98079.08;1765980;80;21058;-43
2022/12/10 03:56:59;;;;;;;71.60;35.45;;;;;;;1.57;89.29;98066.02;1774144;80;21487;-42
2022/12/10 03:59:25;;;;;;;78.33;36.77;;;;;;;1.52;89.50;98060.54;1776227;80;21021;-42
2022/12/10 04:01:51;;;;;;;71.62;34.73;;;;;;;1.48;89.94;98070.63;1770233;80;21012;-42
2022/12/10 04:04:17;;;;;;;65.37;33.48;;;;;;;1.48;90.21;98068.50;1771126;80;21038;-42
2022/12/10 04:06:43;;;;;;;74.75;34.73;;;;;;;1.55;89.76;98073.84;1768632;80;21131;-42
2022/12/10 04:09:15;;;;;;;75.87;34.40;;;;;;;1.56;89.52;98084.59;1777481;81;21042;-42
2022/12/10 04:11:42;;;;;;;74.17;35.40;;;;;;;1.51;89.79;98086.08;1778752;80;21535;-42
2022/12/10 04:16:57;;;;;;;78.45;38.53;;;;;;;1.61;89.53;98089.14;1778691;80;20996;-42
2022/12/10 04:19:23;;;;;;;78.22;36.45;;;;;;;1.49;90.17;98093.06;1775392;80;21027;-42
2022/12/10 04:27:33;;;;;;;77.75;37.98;;;;;;;1.41;90.76;98090.36;1778936;81;20984;-43
2022/12/10 04:29:59;;;;;;;86.60;38.00;;;;;;;1.48;90.43;98087.47;1778795;81;20995;-43
2022/12/10 04:32:28;;;;;;;88.72;39.53;;;;;;;1.34;90.98;98081.50;1774746;80;21530;-42
2022/12/10 04:34:55;;;;;;;79.67;37.63;;;;;;;1.44;90.73;98085.08;1769195;80;20988;-42
2022/12/10 04:37:22;;;;;;;76.30;35.78;;;;;;;1.31;91.39;98087.25;1777139;80;21007;-43
2022/12/10 04:39:50;;;;;;;86.00;40.08;;;;;;;1.30;91.60;98088.17;1779035;81;21558;-42
2022/12/10 04:42:16;;;;;;;91.90;41.25;;;;;;;1.38;91.25;98091.30;1765411;80;21011;-42
2022/12/10 04:44:41;;;;;;;88.35;41.10;;;;;;;1.44;91.10;98094.98;1774430;80;21018;-43
2022/12/10 04:47:09;;;;;;;90.62;40.83;;;;;;;1.46;91.12;98094.47;1782799;80;20993;-43
2022/12/10 04:49:35;;;;;;;88.30;41.35;;;;;;;1.45;90.85;98094.05;1779016;81;20995;-42
2022/12/10 04:52:02;;;;;;;90.65;39.53;;;;;;;1.49;90.67;98096.08;1767852;80;21022;-42
2022/12/10 04:54:29;;;;;;;85.85;39.20;;;;;;;1.38;90.90;98101.66;1778285;80;20984;-42
2022/12/10 04:56:55;;;;;;;89.95;41.75;;;;;;;1.28;91.48;98102.47;1774254;80;20988;-44
2022/12/10 04:59:21;;;;;;;92.17;40.88;;;;;;;1.24;91.42;98098.77;1771250;80;21063;-43
2022/12/10 05:01:47;;;;;;;83.78;38.78;;;;;;;1.32;91.24;98094.97;1762242;80;21014;-42
2022/12/10 05:04:16;;;;;;;91.72;40.55;;;;;;;1.25;91.67;98084.89;1773884;80;20996;-42
2022/12/10 05:06:43;;;;;;;92.72;40.98;;;;;;;1.28;91.44;98091.27;1768528;80;21003;-42
2022/12/10 05:09:11;;;;;;;97.88;42.48;;;;;;;1.25;91.75;98093.97;1772429;80;21663;-42
2022/12/10 05:11:38;;;;;;;88.33;40.40;;;;;;;1.23;92.09;98083.66;1768337;80;21055;-40
2022/12/10 05:14:04;;;;;;;98.60;42.20;;;;;;;1.27;91.81;98094.75;1776820;80;21027;-42
2022/12/10 05:16:32;;;;;;;93.35;42.45;;;;;;;1.06;92.53;98092.51;1767239;80;21524;-42
2022/12/10 05:18:59;;;;;;;97.35;44.13;;;;;;;0.88;93.31;98093.55;1778733;80;21007;-41
2022/12/10 05:24:13;;;;;;;91.15;41.02;;;;;;;1.13;92.91;98102.58;1768835;80;21554;-43
2022/12/10 05:26:39;;;;;;;106.03;45.25;;;;;;;0.85;93.36;98105.75;1770276;80;20998;-42
2022/12/10 05:29:05;;;;;;;96.85;43.08;;;;;;;0.96;93.91;98107.50;1777247;81;20983;-41
2022/12/10 05:31:31;;;;;;;89.67;40.75;;;;;;;0.91;94.62;98116.74;1774275;80;21062;-42
2022/12/10 05:33:58;;;;;;;89.17;41.05;;;;;;;0.97;94.20;98116.97;1778525;80;21011;-42
2022/12/10 05:36:27;;;;;;;97.90;41.65;;;;;;;1.04;93.49;98124.92;1775670;80;21508;-42
2022/12/10 05:38:55;;;;;;;89.15;39.78;;;;;;;1.03;93.60;98129.69;1772643;80;21408;-42
2022/12/10 05:41:25;;;;;;;91.15;41.08;;;;;;;0.86;94.04;98128.99;1778650;80;20988;-41
2022/12/10 05:43:57;;;;;;;99.37;40.78;;;;;;;0.99;94.20;98130.70;1778774;81;21002;-42
2022/12/10 05:46:26;;;;;;;94.77;41.35;;;;;;;0.94;94.58;98128.72;1769374;80;21011;-44
2022/12/10 05:48:52;;;;;;;90.38;39.58;;;;;;;0.99;94.07;98136.34;1767600;80;21050;-41
2022/12/10 05:51:23;;;;;;;91.30;38.95;;;;;;;1.04;93.72;98136.57;1777664;80;21490;-42
2022/12/10 05:53:49;;;;;;;87.35;38.25;;;;;;;1.00;93.72;98145.35;1768002;80;21042;-43
2022/12/10 05:56:19;;;;;;;89.60;37.78;;;;;;;1.10;93.37;98149.28;1770349;80;21012;-41
2022/12/10 05:58:47;;;;;;;83.85;37.33;;;;;;;1.13;92.88;98145.30;1760251;80;20999;-41
2022/12/10 06:01:18;;;;;;;88.67;38.00;;;;;;;1.09;92.86;98143.73;1786331;80;21030;-42
2022/12/10 06:03:44;;;;;;;91.45;38.95;;;;;;;1.08;92.83;98140.73;1772901;80;21011;-42
2022/12/10 06:06:11;;;;;;;88.35;38.48;;;;;;;1.13;93.03;98141.42;1769862;80;21015;-42
2022/12/10 06:08:37;;;;;;;88.47;38.40;;;;;;;1.17;92.61;98140.02;1774581;80;20987;-42
2022/12/10 06:11:10;;;;;;;86.08;37.30;;;;;;;1.14;92.78;98138.38;1769638;80;21015;-42
2022/12/10 06:13:37;;;;;;;95.25;39.20;;;;;;;1.03;93.04;98134.03;1772436;80;21541;-41
2022/12/10 06:16:09;;;;;;;92.80;39.65;;;;;;;1.03;92.86;98140.50;1769033;80;21552;-42
2022/12/10 06:18:35;;;;;;;94.22;39.15;;;;;;;0.81;93.09;98137.81;1765330;80;21000;-42
2022/12/10 06:21:06;;;;;;;90.87;38.85;;;;;;;0.83;93.87;98143.78;1772951;80;21598;-42
2022/12/10 06:23:34;;;;;;;93.20;39.13;;;;;;;0.81;94.13;98145.12;1767207;80;21049;-42
2022/12/10 06:26:10;;;;;;;90.70;39.45;;;;;;;0.89;93.54;98144.42;1775454;80;20992;-42
2022/12/10 06:28:36;;;;;;;82.30;36.03;;;;;;;0.85;93.84;98145.86;1780313;80;21008;-41
2022/12/10 06:31:03;;;;;;;81.37;37.03;;;;;;;0.67;94.29;98149.45;1769847;80;21054;-42
2022/12/10 06:33:28;;;;;;;86.55;39.00;;;;;;;0.64;94.35;98145.70;1775113;80;21050;-43
2022/12/10 06:35:54;;;;;;;88.87;39.40;;;;;;;0.74;93.50;98154.83;1771479;81;20980;-42
2022/12/10 06:38:20;;;;;;;85.75;36.70;;;;;;;0.75;93.94;98144.89;1767087;80;21584;-41
2022/12/10 06:40:46;;;;;;;85.72;38.15;;;;;;;0.61;94.36;98143.66;1771398;81;21042;-42
2022/12/10 06:43:12;;;;;;;79.15;34.88;;;;;;;0.72;94.18;98146.73;1770985;80;21451;-42
2022/12/10 06:45:41;;;;;;;81.80;39.10;;;;;;;0.65;94.40;98145.25;1770893;80;21016;-41
2022/12/10 06:48:08;;;;;;;83.52;37.48;;;;;;;0.67;94.18;98148.63;1770254;80;20997;-41
2022/12/10 06:50:34;;;;;;;91.07;38.23;;;;;;;0.64;94.30;98153.47;1777790;80;21007;-40
2022/12/10 06:53:00;;;;;;;82.42;38.02;;;;;;;0.69;93.98;98154.16;1773303;80;20976;-41
2022/12/10 06:55:26;;;;;;;94.07;39.50;;;;;;;0.70;93.95;98157.13;1769680;80;21524;-41
2022/12/10 06:57:53;;;;;;;85.17;38.23;;;;;;;0.70;93.95;98157.13;1768482;80;21532;-41
2022/12/10 07:00:20;;;;;;;92.53;40.45;;;;;;;0.78;93.94;98162.03;1767462;80;21558;-41
2022/12/10 07:02:46;;;;;;;84.22;38.63;;;;;;;0.78;93.65;98166.38;1773331;80;21516;-41
2022/12/10 07:05:13;;;;;;;87.55;37.28;;;;;;;0.81;93.71;98166.28;1778359;80;21056;-41
2022/12/10 07:07:39;;;;;;;83.60;39.30;;;;;;;0.89;93.40;98163.84;1765530;80;20976;-41
2022/12/10 07:10:05;;;;;;;75.55;35.85;;;;;;;0.75;93.82;98163.00;1778684;81;20996;-41
2022/12/10 07:12:31;;;;;;;81.87;38.02;;;;;;;0.90;93.37;98162.92;1768746;80;21015;-42
2022/12/10 07:14:57;;;;;;;90.07;39.13;;;;;;;0.84;93.34;98165.73;1771969;80;21497;-41
2022/12/10 07:17:23;;;;;;;81.00;37.67;;;;;;;0.86;93.38;98158.75;1764427;80;21483;-41
2022/12/10 07:19:49;;;;;;;85.15;38.17;;;;;;;0.92;92.85;98165.47;1774642;80;21500;-42
2022/12/10 07:22:15;;;;;;;83.78;37.93;;;;;;;0.97;92.97;98170.04;1773032;80;21439;-41
2022/12/10 07:24:41;;;;;;;81.17;39.05;;;;;;;0.92;92.93;98166.30;1764408;80;21003;-41
2022/12/10 07:27:08;;;;;;;81.90;37.30;;;;;;;0.87;92.91;98173.38;1766043;80;21023;-41
2022/12/10 07:29:35;;;;;;;82.92;37.15;;;;;;;0.91;92.86;98166.34;1770247;80;21010;-41
2022/12/10 07:32:00;;;;;;;83.97;38.90;;;;;;;0.82;92.69;98166.66;1777782;81;21067;-42
2022/12/10 07:34:26;;;;;;;77.27;36.20;;;;;;;0.92;92.51;98168.05;1778737;80;20984;-41
2022/12/10 07:36:52;;;;;;;77.30;36.93;;;;;;;0.85;92.30;98163.52;1775966;80;20959;-42
2022/12/10 07:39:18;;;;;;;77.95;36.05;;;;;;;0.92;92.22;98166.30;1771027;80;21066;-41
2022/12/10 07:41:53;;;;;;;70.87;34.80;;;;;;;0.86;92.31;98166.52;1776066;80;21094;-41
2022/12/10 07:44:21;;;;;;;74.67;35.70;;;;;;;0.85;92.33;98163.98;1778764;81;21035;-42
2022/12/10 07:46:49;;;;;;;70.78;33.90;;;;;;;0.80;92.60;98166.74;1774411;80;21508;-42
2022/12/10 07:49:15;;;;;;;69.53;33.40;;;;;;;0.77;92.34;98164.25;1778782;81;20987;-43
2022/12/10 07:51:47;;;;;;;72.15;33.38;;;;;;;0.80;92.53;98155.52;1778608;80;21058;-41
2022/12/10 07:54:14;;;;;;;75.90;35.98;;;;;;;0.78;92.68;98158.61;1766478;80;21020;-42
2022/12/10 07:56:40;;;;;;;66.53;33.85;;;;;;;0.80;92.61;98156.39;1773458;80;21051;-42
2022/12/10 07:59:06;;;;;;;67.30;34.67;;;;;;;0.90;92.56;98163.38;1768811;80;21558;-41
2022/12/10 08:01:31;;;;;;;72.55;36.65;;;;;;;0.81;92.24;98171.00;1766462;80;21473;-42
2022/12/10 08:03:57;;;;;;;62.25;31.42;;;;;;;0.71;92.79;98166.59;1774425;81;21023;-42
2022/12/10 08:06:25;;;;;;;72.58;34.63;;;;;;;0.53;92.73;98172.38;1778878;81;21024;-42
2022/12/10 08:08:51;;;;;;;67.03;33.55;;;;;;;0.68;93.06;98174.91;1769309;80;21456;-41
2022/12/10 08:11:19;;;;;;;65.52;34.33;;;;;;;0.83;92.95;98175.67;1768714;80;21047;-43
2022/12/10 08:13:45;;;;;;;62.33;30.72;;;;;;;0.83;92.95;98175.67;1768629;80;21051;-43
2022/12/10 08:16:15;;;;;;;67.53;34.00;;;;;;;0.75;92.52;98175.10;1778047;81;20994;-42
2022/12/10 08:18:42;;;;;;;62.95;32.85;;;;;;;0.87;92.27;98185.02;1778331;80;21054;-42
2022/12/10 08:21:12;;;;;;;59.05;31.85;;;;;;;0.91;92.21;98175.41;1774443;80;21047;-41
2022/12/10 08:23:39;;;;;;;64.03;33.53;;;;;;;0.95;91.99;98177.85;1769900;80;21485;-41
2022/12/10 08:26:08;;;;;;;62.05;32.17;;;;;;;0.83;92.26;98174.84;1766969;80;21050;-42
2022/12/10 08:28:34;;;;;;;64.60;32.73;;;;;;;0.85;92.08;98172.58;1765421;80;20998;-42
2022/12/10 08:31:00;;;;;;;63.75;31.97;;;;;;;0.90;92.02;98180.20;1777653;81;20996;-41
2022/12/10 08:33:27;;;;;;;63.60;33.45;;;;;;;0.86;91.92;98176.88;1777140;80;21010;-41
2022/12/10 08:35:58;;;;;;;59.65;31.55;;;;;;;0.91;92.08;98181.45;1769795;80;21012;-41
2022/12/10 08:38:24;;;;;;;62.43;32.90;;;;;;;0.88;91.79;98178.13;1784891;80;20999;-41
2022/12/10 08:40:49;;;;;;;64.80;33.85;;;;;;;0.83;91.72;98185.19;1775037;81;20999;-41
2022/12/10 08:43:15;;;;;;;65.83;33.65;;;;;;;0.83;91.72;98185.19;1777566;80;20990;-40
2022/12/10 08:45:41;;;;;;;63.68;31.50;;;;;;;0.77;92.20;98179.78;1775871;80;20995;-41
2022/12/10 08:48:07;;;;;;;57.35;31.57;;;;;;;0.76;92.67;98185.41;1768537;80;21046;-41
2022/12/10 08:50:33;;;;;;;59.23;31.93;;;;;;;0.75;92.73;98182.87;1778858;81;20956;-40
2022/12/10 08:53:00;;;;;;;62.58;33.05;;;;;;;0.85;92.91;98174.33;1778772;80;21065;-42
2022/12/10 08:55:26;;;;;;;65.28;33.30;;;;;;;0.94;92.22;98176.15;1774465;80;21469;-41
2022/12/10 08:57:51;;;;;;;56.58;29.00;;;;;;;0.90;91.99;98176.32;1771533;80;21567;-40
2022/12/10 09:00:18;;;;;;;61.33;33.48;;;;;;;0.85;92.09;98184.69;1776085;80;21011;-42
2022/12/10 09:02:45;;;;;;;65.75;33.20;;;;;;;0.93;91.97;98178.81;1765721;80;21434;-42
2022/12/10 09:05:11;;;;;;;63.93;32.63;;;;;;;0.92;92.22;98181.83;1756233;80;20995;-41
2022/12/10 09:07:36;;;;;;;66.80;35.43;;;;;;;1.02;92.00;98183.67;1773034;80;20984;-42
2022/12/10 09:10:03;;;;;;;65.12;34.43;;;;;;;0.97;91.79;98191.20;1769536;80;21003;-42
2022/12/10 09:12:29;;;;;;;87.27;41.80;;;;;;;1.03;91.80;98185.34;1768525;80;21043;-40
2022/12/10 09:14:55;;;;;;;70.85;34.63;;;;;;;1.12;91.74;98185.03;1767866;80;21047;-40
2022/12/10 09:17:21;;;;;;;67.40;32.03;;;;;;;1.18;91.33;98180.08;1774388;81;21524;-40
2022/12/10 09:19:47;;;;;;;67.75;35.08;;;;;;;1.13;91.02;98188.03;1772145;80;21051;-40
2022/12/10 09:22:13;;;;;;;66.02;32.67;;;;;;;1.20;91.27;98191.26;1772158;80;20979;-41
2022/12/10 09:24:39;;;;;;;67.27;33.25;;;;;;;1.23;91.41;98187.70;1774428;80;20998;-40
2022/12/10 09:27:05;;;;;;;61.37;32.05;;;;;;;1.28;91.42;98194.87;1772763;80;21000;-41
2022/12/10 09:29:30;;;;;;;59.90;32.23;;;;;;;1.43;91.26;98194.30;1771667;81;20995;-42
2022/12/10 09:31:56;;;;;;;62.62;32.28;;;;;;;1.42;90.71;98192.63;1770072;80;21059;-41
2022/12/10 09:34:22;;;;;;;66.22;33.08;;;;;;;1.37;90.58;98195.84;1778759;80;20994;-41
2022/12/10 09:36:48;;;;;;;61.73;31.77;;;;;;;1.37;90.42;98197.13;1765746;80;20980;-42
2022/12/10 09:39:14;;;;;;;65.08;32.25;;;;;;;1.43;90.38;98198.66;1777611;80;20984;-42
2022/12/10 09:42:07;;;;;;;75.00;42.45;;;;;;;1.46;90.33;98204.57;1772953;80;21481;-43
2022/12/10 09:45:00;;;;;;;60.33;32.20;;;;;;;1.52;90.37;98201.75;1778311;80;21027;-42
2022/12/10 09:47:49;;;;;;;61.00;32.48;;;;;;;1.39;89.99;98197.91;1778609;80;21060;-41
2022/12/10 09:50:38;;;;;;;72.78;34.43;;;;;;;1.46;90.03;98196.80;1758098;81;21050;-42
2022/12/10 09:53:07;;;;;;;76.70;37.55;;;;;;;1.53;90.33;98190.50;1765558;80;21008;-42
2022/12/10 09:55:40;;;;;;;88.62;41.70;;;;;;;1.57;90.00;98190.39;1768828;80;21023;-42
2022/12/10 09:58:08;;;;;;;93.03;48.58;;;;;;;1.61;89.95;98185.48;1748642;80;21011;-41
2022/12/10 10:00:39;;;;;;;75.52;38.67;;;;;;;1.60;89.96;98182.48;1757514;80;21070;-38
2022/12/10 10:03:07;;;;;;;85.75;41.92;;;;;;;1.59;89.71;98173.88;1777859;80;20943;-42
2022/12/10 10:05:40;;;;;;;73.25;37.53;;;;;;;1.62;89.85;98175.50;1761679;80;21520;-42
2022/12/10 10:08:13;;;;;;;79.62;39.35;;;;;;;1.58;89.64;98172.63;1781091;80;20995;-42
2022/12/10 10:10:41;;;;;;;71.05;36.63;;;;;;;1.66;89.65;98171.91;1764205;80;21496;-41
2022/12/10 10:13:24;;;;;;;69.92;34.78;;;;;;;1.68;89.54;98170.11;1768119;80;21016;-42
2022/12/10 10:15:51;;;;;;;70.28;34.90;;;;;;;1.60;89.57;98166.51;1780047;80;20994;-42
2022/12/10 10:18:43;;;;;;;71.80;34.38;;;;;;;1.56;89.64;98151.12;1778857;81;20983;-42
2022/12/10 10:21:26;;;;;;;71.42;36.38;;;;;;;1.56;89.79;98145.48;1775939;80;20988;-43
2022/12/10 10:23:52;;;;;;;73.92;36.83;;;;;;;1.66;89.82;98140.81;1783153;80;20995;-42
2022/12/10 10:26:18;;;;;;;66.60;34.67;;;;;;;1.78;89.84;98142.08;1761902;80;21030;-42
2022/12/10 10:28:45;;;;;;;75.52;35.78;;;;;;;1.88;89.63;98138.25;1776912;80;21489;-41
2022/12/10 10:31:25;;;;;;;77.22;35.58;;;;;;;1.88;89.51;98142.13;1771487;80;21004;-41
2022/12/10 10:34:01;;;;;;;78.35;37.23;;;;;;;1.92;89.31;98147.13;1774510;80;21050;-42
2022/12/10 10:36:32;;;;;;;72.85;38.08;;;;;;;1.89;89.13;98139.48;1748445;80;21092;-41
2022/12/10 10:39:11;;;;;;;63.52;34.55;;;;;;;1.92;88.93;98138.52;1747884;82;21044;-41
2022/12/10 10:41:39;;;;;;;69.50;35.52;;;;;;;1.90;88.59;98140.33;1744659;82;21008;-42
2022/12/10 10:44:21;;;;;;;69.42;33.75;;;;;;;1.82;88.49;98139.76;1745745;82;21025;-42
2022/12/10 10:46:52;;;;;;;75.72;37.55;;;;;;;1.85;88.71;98139.65;1748104;82;20997;-41
2022/12/10 10:49:31;;;;;;;66.10;32.23;;;;;;;1.74;88.78;98140.06;1748069;82;21024;-40
2022/12/10 10:52:15;;;;;;;70.00;33.40;;;;;;;1.82;88.72;98132.84;1744123;82;21019;-41
2022/12/10 10:54:44;;;;;;;69.97;36.98;;;;;;;1.82;88.74;98133.28;1744471;82;21431;-42
2022/12/10 10:57:33;;;;;;;85.85;41.23;;;;;;;1.92;88.81;98147.58;1748018;82;20971;-41
2022/12/10 11:00:11;;;;;;;67.72;36.05;;;;;;;1.88;88.37;98140.38;1744704;82;21535;-41
2022/12/10 11:02:42;;;;;;;72.47;35.63;;;;;;;1.94;88.32;98145.77;1744514;82;21005;-41
2022/12/10 11:05:28;;;;;;;80.72;37.05;;;;;;;1.89;88.11;98143.38;1742328;82;21502;-41
2022/12/10 11:08:01;;;;;;;69.75;33.53;;;;;;;1.84;88.38;98147.05;1748233;82;21466;-42
2022/12/10 11:10:28;;;;;;;67.75;31.68;;;;;;;1.77;87.99;98138.66;1748193;82;20997;-41
2022/12/10 11:13:19;;;;;;;61.30;31.13;;;;;;;1.79;88.24;98131.66;1738851;82;20997;-41
2022/12/10 11:15:45;;;;;;;63.20;30.20;;;;;;;1.73;88.16;98134.04;1725905;82;21056;-42
2022/12/10 11:18:28;;;;;;;57.88;28.40;;;;;;;1.76;88.12;98134.36;1734792;82;21573;-42
2022/12/10 11:21:17;;;;;;;59.27;28.07;;;;;;;1.77;87.96;98133.47;1737443;82;20993;-41
2022/12/10 11:23:48;;;;;;;60.45;30.92;;;;;;;;;;1749800;81;21459;-42
2022/12/10 11:26:52;;;;;;;56.60;27.22;;;;;;;1.57;88.09;98119.97;1743796;81;21408;-41
2022/12/10 11:29:41;;;;;;;54.80;28.67;;;;;;;1.61;88.18;98123.30;1732521;82;20990;-43
2022/12/10 11:32:36;;;;;;;60.55;27.52;;;;;;;1.56;88.01;98124.75;1752848;81;20974;-41
2022/12/10 11:35:36;;;;;;;56.33;27.93;;;;;;;1.47;88.25;98118.16;1751301;81;20999;-42
2022/12/10 11:38:29;;;;;;;54.45;28.15;;;;;;;1.50;88.31;98130.17;1760271;81;21619;-41
2022/12/10 11:41:23;;;;;;;50.50;25.57;;;;;;;1.62;88.40;98123.67;1756556;80;20970;-42
2022/12/10 11:44:15;;;;;;;53.25;27.58;;;;;;;1.65;88.41;98133.47;1759580;80;20956;-42
2022/12/10 11:47:07;;;;;;;64.77;32.00;;;;;;;1.70;88.18;98138.49;1756218;81;20981;-41
2022/12/10 11:50:08;;;;;;;78.42;36.08;;;;;;;1.77;88.35;98145.59;1752234;81;21438;-41
2022/12/10 11:52:59;;;;;;;73.70;37.23;;;;;;;1.54;87.79;98144.23;1740575;82;20991;-42
2022/12/10 11:55:54;;;;;;;67.90;33.75;;;;;;;1.48;88.31;98144.47;1755546;81;20940;-41
2022/12/10 11:58:51;;;;;;;61.05;29.82;;;;;;;1.63;88.62;98147.40;1748534;81;21027;-42
2022/12/10 12:01:53;;;;;;;61.50;30.08;;;;;;;1.66;88.17;98160.25;1729698;81;21064;-41
2022/12/10 12:04:55;;;;;;;60.78;30.62;;;;;;;1.66;88.12;98165.44;1728326;82;21024;-41
2022/12/10 12:07:46;;;;;;;71.95;38.35;;;;;;;1.64;88.26;98171.13;1748178;82;21478;-41
2022/12/10 12:10:35;;;;;;;65.62;33.28;;;;;;;1.63;88.22;98179.80;1739195;82;21060;-41
2022/12/10 12:13:24;;;;;;;58.45;30.25;;;;;;;1.61;88.18;98176.41;1726704;82;21025;-42
2022/12/10 12:16:04;;;;;;;55.63;28.07;;;;;;;1.69;88.39;98174.37;1695765;84;20998;-42
2022/12/10 12:19:05;;;;;;;64.07;31.52;;;;;;;1.77;88.45;98168.92;1694811;82;21023;-42
2022/12/10 12:21:31;;;;;;;64.10;31.97;;;;;;;1.78;88.20;98168.00;1741680;82;20985;-41
2022/12/10 12:24:07;;;;;;;66.90;34.08;;;;;;;1.78;87.92;98172.73;1723918;82;21008;-42
2022/12/10 12:26:39;;;;;;;68.55;31.45;;;;;;;1.66;88.10;98179.23;1737025;82;21048;-41
2022/12/10 12:29:34;;;;;;;67.65;35.15;;;;;;;1.74;87.85;98185.41;1724914;82;21004;-41
2022/12/10 12:32:12;;;;;;;66.02;33.48;;;;;;;1.76;87.92;98189.25;1748107;82;21068;-42
2022/12/10 12:34:59;;;;;;;66.95;33.28;;;;;;;1.76;87.92;98182.77;1737475;82;21598;-41
2022/12/10 12:37:42;;;;;;;72.95;36.95;;;;;;;1.76;87.59;98174.53;1748154;82;20993;-41
2022/12/10 12:40:29;;;;;;;70.80;33.63;;;;;;;1.66;87.79;98178.39;1728243;82;21020;-41
2022/12/10 12:43:00;;;;;;;63.05;31.20;;;;;;;1.65;88.14;98176.69;1750465;82;20997;-40
2022/12/10 12:45:44;;;;;;;57.30;29.85;;;;;;;1.61;87.82;98172.53;1748147;82;20992;-42
2022/12/10 12:48:31;;;;;;;68.17;35.13;;;;;;;1.44;88.51;98174.45;1747984;82;21445;-42
2022/12/10 12:51:08;;;;;;;72.32;35.13;;;;;;;1.59;88.38;98166.56;1727243;82;21021;-42
2022/12/10 12:53:35;;;;;;;68.50;33.35;;;;;;;1.71;88.40;98170.84;1753201;82;20996;-42
2022/12/10 12:56:39;;;;;;;63.87;32.73;;;;;;;1.75;88.12;98180.64;1745348;82;21517;-42
2022/12/10 12:59:33;;;;;;;62.60;29.67;;;;;;;1.75;87.94;98180.64;1735990;82;21021;-40
2022/12/10 13:02:17;;;;;;;56.88;28.15;;;;;;;1.77;87.83;98187.91;1743563;82;21005;-40
2022/12/10 13:04:43;;;;;;;59.45;27.85;;;;;;;1.78;88.07;98189.58;1748243;81;21510;-41
2022/12/10 13:07:17;;;;;;;52.75;26.48;;;;;;;1.78;87.77;98188.28;1740472;82;21036;-42
2022/12/10 13:09:49;;;;;;;55.52;27.13;;;;;;;1.81;87.83;98189.93;1739866;82;21024;-41
2022/12/10 13:12:27;;;;;;;56.92;30.10;;;;;;;1.79;87.78;98189.14;1737620;82;21033;-41
2022/12/10 13:15:02;;;;;;;;;;;;;;;1.81;87.95;98188.17;1713463;82;20989;-41
2022/12/10 13:17:34;;;;;;;65.97;30.97;;;;;;;1.84;87.96;98188.07;1726043;81;20106;-42
2022/12/10 13:20:28;;;;;;;57.00;28.67;;;;;;;1.83;88.01;98178.59;1747778;82;21013;-41
2022/12/10 13:22:59;;;;;;;60.17;28.75;;;;;;;1.90;87.77;98184.39;1736679;82;20993;-41
2022/12/10 13:25:54;;;;;;;67.03;32.65;;;;;;;1.86;87.88;98182.37;1740451;82;21064;-41
2022/12/10 13:28:37;;;;;;;64.30;30.12;;;;;;;1.87;87.80;98187.09;1741781;82;21001;-41
2022/12/10 13:31:21;;;;;;;75.55;34.48;;;;;;;1.95;87.72;98186.37;1740705;82;21431;-41
2022/12/10 13:34:08;;;;;;;74.03;35.33;;;;;;;1.88;87.75;98184.45;1748031;82;20969;-41
2022/12/10 13:36:48;;;;;;;71.12;32.85;;;;;;;1.47;88.55;98187.27;1747467;82;21060;-41
2022/12/10 13:39:31;;;;;;;73.20;34.18;;;;;;;1.64;88.34;98181.49;1741980;82;20993;-41
2022/12/10 13:45:06;;;;;;;78.75;36.55;;;;;;;1.53;88.75;98199.56;1740838;82;21510;-40
2022/12/10 13:47:43;;;;;;;59.80;31.17;;;;;;;1.66;88.75;98206.90;1741889;82;21011;-42
2022/12/10 13:50:31;;;;;;;67.20;30.80;;;;;;;1.70;88.26;98195.05;1751016;80;20978;-41
2022/12/10 13:53:29;;;;;;;62.10;29.67;;;;;;;1.67;88.18;98198.20;1751923;80;20969;-41
2022/12/10 13:56:12;;;;;;;74.87;36.75;;;;;;;1.71;88.51;98183.80;1731916;82;20993;-41
2022/12/10 13:59:24;;;;;;;67.80;33.45;;;;;;;1.72;88.39;98168.62;1731142;82;21017;-42
2022/12/10 14:02:18;;;;;;;71.80;34.50;;;;;;;1.79;88.43;98154.98;1748506;80;21473;-41
2022/12/10 14:05:33;;;;;;;76.77;35.43;;;;;;;1.70;88.56;98152.28;1753302;81;21016;-41
2022/12/10 14:08:02;;;;;;;73.87;36.75;;;;;;;1.74;88.66;98153.02;1749110;80;21040;-41
2022/12/10 14:10:33;;;;;;;76.95;39.08;;;;;;;1.78;88.52;98151.98;1754550;80;20983;-41
2022/12/10 14:13:02;;;;;;;73.28;35.28;;;;;;;1.76;88.84;98161.58;1750998;80;20956;-42
2022/12/10 14:15:28;;;;;;;78.75;36.77;;;;;;;1.80;88.53;98159.28;1761273;80;21586;-42
2022/12/10 14:18:13;;;;;;;80.85;37.10;;;;;;;1.72;88.61;98150.94;1747749;81;21862;-42
2022/12/10 14:20:45;;;;;;;73.67;34.98;;;;;;;1.69;88.90;98154.93;1752053;81;20980;-41
2022/12/10 14:23:33;;;;;;;65.57;32.85;;;;;;;1.78;88.63;98159.77;1757198;80;21490;-42
2022/12/10 14:26:13;;;;;;;64.80;31.60;;;;;;;1.78;88.51;98156.34;1752834;81;21001;-42
2022/12/10 14:28:44;;;;;;;70.72;32.73;;;;;;;1.72;88.48;98156.13;1752296;81;21032;-41
2022/12/10 14:31:30;;;;;;;72.32;33.83;;;;;;;1.56;88.92;98153.25;1756515;81;21465;-41
2022/12/10 14:34:06;;;;;;;70.10;32.75;;;;;;;1.64;88.65;98163.36;1739359;81;20944;-41
2022/12/10 14:36:39;;;;;;;68.05;32.55;;;;;;;1.67;89.14;98167.11;1748245;81;20952;-42
2022/12/10 14:39:23;;;;;;;67.58;31.17;;;;;;;1.75;88.94;98162.50;1756388;81;20977;-41
2022/12/10 14:41:52;;;;;;;76.47;34.58;;;;;;;1.78;88.63;98170.13;1753167;80;20976;-41
2022/12/10 14:44:19;;;;;;;70.47;33.18;;;;;;;1.79;88.58;98164.52;1753296;80;20975;-43
2022/12/10 14:46:48;;;;;;;71.35;33.55;;;;;;;1.84;88.48;98171.67;1747474;81;20980;-41
2022/12/10 14:49:25;;;;;;;66.55;31.93;;;;;;;1.83;88.37;98186.36;1742338;81;20998;-41
2022/12/10 14:51:51;;;;;;;76.12;32.05;;;;;;;1.67;88.08;98190.00;1756593;81;21024;-41